sensor_id;sensor_type;location;lat;lon;timestamp;P1;durP1;ratioP1;P2;durP2;ratioP2
42200;SDS011;27869;51.442;7.540;2023-02-01T00:00:30;20.00;;;6.18;;
42200;SDS011;27869;51.442;7.540;2023-02-01T00:02:59;20.60;;;5.78;;
42200;SDS011;27869;51.442;7.540;2023-02-01T00:05:26;22.85;;;6.82;;
42200;SDS011;27869;51.442;7.540;2023-02-01T00:07:53;22.05;;;6.03;;
42200;SDS011;27869;51.442;7.540;2023-02-01T00:10:20;27.88;;;6.25;;
42200;SDS011;27869;51.442;7.540;2023-02-01T00:12:46;19.33;;;5.38;;
42200;SDS011;27869;51.442;7.540;2023-02-01T00:15:13;19.65;;;6.10;;
42200;SDS011;27869;51.442;7.540;2023-02-01T00:17:42;21.70;;;5.45;;
42200;SDS011;27869;51.442;7.540;2023-02-01T00:20:09;18.05;;;5.20;;
42200;SDS011;27869;51.442;7.540;2023-02-01T00:22:37;19.27;;;5.53;;
42200;SDS011;27869;51.442;7.540;2023-02-01T00:25:04;19.88;;;5.25;;
42200;SDS011;27869;51.442;7.540;2023-02-01T00:27:31;19.40;;;5.40;;
42200;SDS011;27869;51.442;7.540;2023-02-01T00:29:58;19.60;;;4.50;;
42200;SDS011;27869;51.442;7.540;2023-02-01T00:32:25;19.00;;;4.03;;
42200;SDS011;27869;51.442;7.540;2023-02-01T00:34:53;17.27;;;4.40;;
42200;SDS011;27869;51.442;7.540;2023-02-01T00:37:20;20.73;;;4.13;;
42200;SDS011;27869;51.442;7.540;2023-02-01T00:39:48;17.42;;;3.90;;
42200;SDS011;27869;51.442;7.540;2023-02-01T00:42:15;19.13;;;4.10;;
42200;SDS011;27869;51.442;7.540;2023-02-01T00:44:42;17.63;;;3.88;;
42200;SDS011;27869;51.442;7.540;2023-02-01T00:47:09;17.35;;;3.40;;
42200;SDS011;27869;51.442;7.540;2023-02-01T00:49:36;15.18;;;3.25;;
42200;SDS011;27869;51.442;7.540;2023-02-01T00:52:04;17.98;;;3.35;;
42200;SDS011;27869;51.442;7.540;2023-02-01T00:54:31;20.70;;;3.13;;
42200;SDS011;27869;51.442;7.540;2023-02-01T00:56:59;12.82;;;3.20;;
42200;SDS011;27869;51.442;7.540;2023-02-01T00:59:26;16.88;;;3.10;;
42200;SDS011;27869;51.442;7.540;2023-02-01T01:01:53;19.75;;;3.03;;
42200;SDS011;27869;51.442;7.540;2023-02-01T01:04:20;15.25;;;2.40;;
42200;SDS011;27869;51.442;7.540;2023-02-01T01:06:47;15.95;;;2.67;;
42200;SDS011;27869;51.442;7.540;2023-02-01T01:09:15;16.40;;;2.78;;
42200;SDS011;27869;51.442;7.540;2023-02-01T01:11:42;15.82;;;2.70;;
42200;SDS011;27869;51.442;7.540;2023-02-01T01:14:09;15.68;;;2.85;;
42200;SDS011;27869;51.442;7.540;2023-02-01T01:16:36;16.23;;;2.70;;
42200;SDS011;27869;51.442;7.540;2023-02-01T01:19:03;18.90;;;2.58;;
42200;SDS011;27869;51.442;7.540;2023-02-01T01:21:31;13.65;;;2.28;;
42200;SDS011;27869;51.442;7.540;2023-02-01T01:23:58;15.23;;;2.67;;
42200;SDS011;27869;51.442;7.540;2023-02-01T01:26:29;11.85;;;2.40;;
42200;SDS011;27869;51.442;7.540;2023-02-01T01:28:57;16.55;;;2.53;;
42200;SDS011;27869;51.442;7.540;2023-02-01T01:31:25;18.45;;;2.38;;
42200;SDS011;27869;51.442;7.540;2023-02-01T01:33:53;15.90;;;2.28;;
42200;SDS011;27869;51.442;7.540;2023-02-01T01:36:21;14.23;;;2.15;;
42200;SDS011;27869;51.442;7.540;2023-02-01T01:38:49;18.30;;;2.58;;
42200;SDS011;27869;51.442;7.540;2023-02-01T01:41:17;15.65;;;2.47;;
42200;SDS011;27869;51.442;7.540;2023-02-01T01:43:49;20.02;;;2.80;;
42200;SDS011;27869;51.442;7.540;2023-02-01T01:46:18;10.93;;;2.22;;
42200;SDS011;27869;51.442;7.540;2023-02-01T01:48:47;17.13;;;2.65;;
42200;SDS011;27869;51.442;7.540;2023-02-01T01:51:19;16.92;;;2.30;;
42200;SDS011;27869;51.442;7.540;2023-02-01T01:53:50;17.70;;;3.08;;
42200;SDS011;27869;51.442;7.540;2023-02-01T01:56:23;19.63;;;3.03;;
42200;SDS011;27869;51.442;7.540;2023-02-01T01:58:53;16.35;;;2.53;;
42200;SDS011;27869;51.442;7.540;2023-02-01T02:01:21;18.52;;;2.60;;
42200;SDS011;27869;51.442;7.540;2023-02-01T02:03:48;15.95;;;2.75;;
42200;SDS011;27869;51.442;7.540;2023-02-01T02:06:18;11.70;;;2.50;;
42200;SDS011;27869;51.442;7.540;2023-02-01T02:08:53;14.88;;;2.55;;
42200;SDS011;27869;51.442;7.540;2023-02-01T02:11:20;15.43;;;2.58;;
42200;SDS011;27869;51.442;7.540;2023-02-01T02:13:48;16.77;;;2.97;;
42200;SDS011;27869;51.442;7.540;2023-02-01T02:25:38;14.13;;;3.05;;
42200;SDS011;27869;51.442;7.540;2023-02-01T02:31:25;12.32;;;3.08;;
42200;SDS011;27869;51.442;7.540;2023-02-01T02:34:10;16.13;;;3.03;;
42200;SDS011;27869;51.442;7.540;2023-02-01T02:36:46;16.77;;;3.00;;
42200;SDS011;27869;51.442;7.540;2023-02-01T02:39:23;21.65;;;3.05;;
42200;SDS011;27869;51.442;7.540;2023-02-01T02:42:01;16.90;;;3.00;;
42200;SDS011;27869;51.442;7.540;2023-02-01T02:44:54;13.30;;;2.55;;
42200;SDS011;27869;51.442;7.540;2023-02-01T02:47:44;18.20;;;2.70;;
42200;SDS011;27869;51.442;7.540;2023-02-01T02:50:20;17.75;;;2.67;;
42200;SDS011;27869;51.442;7.540;2023-02-01T02:53:11;14.43;;;2.70;;
42200;SDS011;27869;51.442;7.540;2023-02-01T02:55:58;18.58;;;2.65;;
42200;SDS011;27869;51.442;7.540;2023-02-01T02:58:45;12.65;;;2.17;;
42200;SDS011;27869;51.442;7.540;2023-02-01T03:01:31;16.63;;;2.63;;
42200;SDS011;27869;51.442;7.540;2023-02-01T03:04:16;16.80;;;2.60;;
42200;SDS011;27869;51.442;7.540;2023-02-01T03:06:44;12.85;;;2.50;;
42200;SDS011;27869;51.442;7.540;2023-02-01T03:09:13;18.10;;;2.53;;
42200;SDS011;27869;51.442;7.540;2023-02-01T03:11:44;19.13;;;2.63;;
42200;SDS011;27869;51.442;7.540;2023-02-01T03:17:01;22.00;;;2.75;;
42200;SDS011;27869;51.442;7.540;2023-02-01T03:19:34;18.10;;;2.45;;
42200;SDS011;27869;51.442;7.540;2023-02-01T03:22:10;11.98;;;2.40;;
42200;SDS011;27869;51.442;7.540;2023-02-01T03:24:41;11.98;;;1.83;;
42200;SDS011;27869;51.442;7.540;2023-02-01T03:27:10;15.88;;;2.22;;
42200;SDS011;27869;51.442;7.540;2023-02-01T03:29:41;19.00;;;2.47;;
42200;SDS011;27869;51.442;7.540;2023-02-01T03:32:11;22.27;;;2.25;;
42200;SDS011;27869;51.442;7.540;2023-02-01T03:34:39;13.07;;;1.88;;
42200;SDS011;27869;51.442;7.540;2023-02-01T03:37:06;15.23;;;1.90;;
42200;SDS011;27869;51.442;7.540;2023-02-01T03:39:38;19.50;;;2.45;;
42200;SDS011;27869;51.442;7.540;2023-02-01T03:42:12;15.15;;;2.22;;
42200;SDS011;27869;51.442;7.540;2023-02-01T03:44:44;17.45;;;2.17;;
42200;SDS011;27869;51.442;7.540;2023-02-01T03:47:16;16.75;;;1.88;;
42200;SDS011;27869;51.442;7.540;2023-02-01T03:49:46;15.82;;;2.13;;
42200;SDS011;27869;51.442;7.540;2023-02-01T03:52:18;18.67;;;2.95;;
42200;SDS011;27869;51.442;7.540;2023-02-01T03:54:48;18.52;;;3.08;;
42200;SDS011;27869;51.442;7.540;2023-02-01T03:57:18;17.98;;;2.42;;
42200;SDS011;27869;51.442;7.540;2023-02-01T03:59:50;15.00;;;2.80;;
42200;SDS011;27869;51.442;7.540;2023-02-01T04:02:17;17.45;;;2.63;;
42200;SDS011;27869;51.442;7.540;2023-02-01T04:04:44;14.95;;;2.03;;
42200;SDS011;27869;51.442;7.540;2023-02-01T04:07:11;16.42;;;2.35;;
42200;SDS011;27869;51.442;7.540;2023-02-01T04:09:39;18.10;;;2.00;;
42200;SDS011;27869;51.442;7.540;2023-02-01T04:12:06;17.17;;;2.20;;
42200;SDS011;27869;51.442;7.540;2023-02-01T04:14:33;19.15;;;2.40;;
42200;SDS011;27869;51.442;7.540;2023-02-01T04:17:00;21.33;;;2.50;;
42200;SDS011;27869;51.442;7.540;2023-02-01T04:19:26;14.80;;;2.08;;
42200;SDS011;27869;51.442;7.540;2023-02-01T04:21:53;16.30;;;2.20;;
42200;SDS011;27869;51.442;7.540;2023-02-01T04:24:20;15.35;;;1.90;;
42200;SDS011;27869;51.442;7.540;2023-02-01T04:26:48;17.83;;;2.42;;
42200;SDS011;27869;51.442;7.540;2023-02-01T04:29:15;16.42;;;2.45;;
42200;SDS011;27869;51.442;7.540;2023-02-01T04:31:42;15.90;;;2.45;;
42200;SDS011;27869;51.442;7.540;2023-02-01T04:34:09;16.60;;;1.60;;
42200;SDS011;27869;51.442;7.540;2023-02-01T04:36:36;20.60;;;2.40;;
42200;SDS011;27869;51.442;7.540;2023-02-01T04:39:03;17.67;;;2.60;;
42200;SDS011;27869;51.442;7.540;2023-02-01T04:41:29;20.63;;;2.50;;
42200;SDS011;27869;51.442;7.540;2023-02-01T04:43:58;17.13;;;2.05;;
42200;SDS011;27869;51.442;7.540;2023-02-01T04:46:24;16.40;;;2.10;;
42200;SDS011;27869;51.442;7.540;2023-02-01T04:48:51;19.80;;;2.22;;
42200;SDS011;27869;51.442;7.540;2023-02-01T04:51:18;18.45;;;3.10;;
42200;SDS011;27869;51.442;7.540;2023-02-01T04:53:45;13.52;;;2.28;;
42200;SDS011;27869;51.442;7.540;2023-02-01T04:56:12;15.80;;;2.40;;
42200;SDS011;27869;51.442;7.540;2023-02-01T04:58:39;19.08;;;2.67;;
42200;SDS011;27869;51.442;7.540;2023-02-01T05:01:07;16.42;;;2.67;;
42200;SDS011;27869;51.442;7.540;2023-02-01T05:03:34;16.00;;;2.30;;
42200;SDS011;27869;51.442;7.540;2023-02-01T05:06:01;14.18;;;1.92;;
42200;SDS011;27869;51.442;7.540;2023-02-01T05:08:30;17.90;;;2.88;;
42200;SDS011;27869;51.442;7.540;2023-02-01T05:10:57;10.07;;;2.22;;
42200;SDS011;27869;51.442;7.540;2023-02-01T05:13:27;17.50;;;2.70;;
42200;SDS011;27869;51.442;7.540;2023-02-01T05:16:13;22.20;;;2.83;;
42200;SDS011;27869;51.442;7.540;2023-02-01T05:18:40;16.15;;;2.28;;
42200;SDS011;27869;51.442;7.540;2023-02-01T05:21:07;13.25;;;2.13;;
42200;SDS011;27869;51.442;7.540;2023-02-01T05:23:34;15.55;;;2.40;;
42200;SDS011;27869;51.442;7.540;2023-02-01T05:26:21;15.77;;;2.60;;
42200;SDS011;27869;51.442;7.540;2023-02-01T05:28:48;18.80;;;2.80;;
42200;SDS011;27869;51.442;7.540;2023-02-01T05:31:16;16.73;;;2.33;;
42200;SDS011;27869;51.442;7.540;2023-02-01T05:33:43;23.23;;;2.30;;
42200;SDS011;27869;51.442;7.540;2023-02-01T05:36:10;16.45;;;2.03;;
42200;SDS011;27869;51.442;7.540;2023-02-01T05:38:37;12.85;;;2.42;;
42200;SDS011;27869;51.442;7.540;2023-02-01T05:41:06;15.73;;;2.35;;
42200;SDS011;27869;51.442;7.540;2023-02-01T05:43:33;17.17;;;2.33;;
42200;SDS011;27869;51.442;7.540;2023-02-01T05:46:00;20.77;;;2.67;;
42200;SDS011;27869;51.442;7.540;2023-02-01T05:48:32;12.98;;;2.45;;
42200;SDS011;27869;51.442;7.540;2023-02-01T05:50:58;19.40;;;2.88;;
42200;SDS011;27869;51.442;7.540;2023-02-01T05:53:25;18.65;;;2.65;;
42200;SDS011;27869;51.442;7.540;2023-02-01T05:55:52;20.02;;;2.40;;
42200;SDS011;27869;51.442;7.540;2023-02-01T05:58:19;20.70;;;2.85;;
42200;SDS011;27869;51.442;7.540;2023-02-01T06:00:46;17.23;;;2.50;;
42200;SDS011;27869;51.442;7.540;2023-02-01T06:03:13;15.25;;;2.50;;
42200;SDS011;27869;51.442;7.540;2023-02-01T06:05:42;23.27;;;2.65;;
42200;SDS011;27869;51.442;7.540;2023-02-01T06:08:10;22.73;;;2.83;;
42200;SDS011;27869;51.442;7.540;2023-02-01T06:10:37;16.02;;;2.83;;
42200;SDS011;27869;51.442;7.540;2023-02-01T06:13:03;23.23;;;3.13;;
42200;SDS011;27869;51.442;7.540;2023-02-01T06:15:30;14.45;;;2.63;;
42200;SDS011;27869;51.442;7.540;2023-02-01T06:17:57;18.77;;;2.72;;
42200;SDS011;27869;51.442;7.540;2023-02-01T06:20:24;17.63;;;2.22;;
42200;SDS011;27869;51.442;7.540;2023-02-01T06:22:52;18.20;;;2.30;;
42200;SDS011;27869;51.442;7.540;2023-02-01T06:25:19;20.88;;;2.60;;
42200;SDS011;27869;51.442;7.540;2023-02-01T06:27:46;15.55;;;2.60;;
42200;SDS011;27869;51.442;7.540;2023-02-01T06:30:13;16.00;;;2.15;;
42200;SDS011;27869;51.442;7.540;2023-02-01T06:32:41;18.83;;;2.95;;
42200;SDS011;27869;51.442;7.540;2023-02-01T06:35:08;22.90;;;3.55;;
42200;SDS011;27869;51.442;7.540;2023-02-01T06:37:36;20.90;;;2.47;;
42200;SDS011;27869;51.442;7.540;2023-02-01T06:40:05;15.63;;;2.45;;
42200;SDS011;27869;51.442;7.540;2023-02-01T06:42:32;17.60;;;2.50;;
42200;SDS011;27869;51.442;7.540;2023-02-01T06:44:59;21.67;;;2.58;;
42200;SDS011;27869;51.442;7.540;2023-02-01T06:47:26;20.63;;;3.08;;
42200;SDS011;27869;51.442;7.540;2023-02-01T06:49:53;15.85;;;2.58;;
42200;SDS011;27869;51.442;7.540;2023-02-01T06:52:20;19.95;;;3.03;;
42200;SDS011;27869;51.442;7.540;2023-02-01T06:54:46;20.27;;;3.30;;
42200;SDS011;27869;51.442;7.540;2023-02-01T06:57:15;22.20;;;3.08;;
42200;SDS011;27869;51.442;7.540;2023-02-01T06:59:42;17.17;;;3.15;;
42200;SDS011;27869;51.442;7.540;2023-02-01T07:02:09;24.55;;;3.75;;
42200;SDS011;27869;51.442;7.540;2023-02-01T07:04:36;18.95;;;3.17;;
42200;SDS011;27869;51.442;7.540;2023-02-01T07:07:03;21.23;;;3.42;;
42200;SDS011;27869;51.442;7.540;2023-02-01T07:09:30;21.63;;;3.80;;
42200;SDS011;27869;51.442;7.540;2023-02-01T07:11:57;21.88;;;3.45;;
42200;SDS011;27869;51.442;7.540;2023-02-01T07:14:25;20.52;;;2.50;;
42200;SDS011;27869;51.442;7.540;2023-02-01T07:16:52;16.58;;;2.38;;
42200;SDS011;27869;51.442;7.540;2023-02-01T07:19:19;13.82;;;2.80;;
42200;SDS011;27869;51.442;7.540;2023-02-01T07:21:46;12.93;;;2.25;;
42200;SDS011;27869;51.442;7.540;2023-02-01T07:24:13;21.13;;;2.88;;
42200;SDS011;27869;51.442;7.540;2023-02-01T07:26:40;19.73;;;2.97;;
42200;SDS011;27869;51.442;7.540;2023-02-01T07:29:07;15.77;;;2.13;;
42200;SDS011;27869;51.442;7.540;2023-02-01T07:31:35;20.05;;;2.95;;
42200;SDS011;27869;51.442;7.540;2023-02-01T07:34:02;17.63;;;3.20;;
42200;SDS011;27869;51.442;7.540;2023-02-01T07:36:29;17.38;;;2.88;;
42200;SDS011;27869;51.442;7.540;2023-02-01T07:38:57;21.00;;;2.85;;
42200;SDS011;27869;51.442;7.540;2023-02-01T07:41:24;16.85;;;2.65;;
42200;SDS011;27869;51.442;7.540;2023-02-01T07:43:52;24.35;;;3.10;;
42200;SDS011;27869;51.442;7.540;2023-02-01T07:46:19;19.20;;;2.60;;
42200;SDS011;27869;51.442;7.540;2023-02-01T07:48:48;17.52;;;2.65;;
42200;SDS011;27869;51.442;7.540;2023-02-01T07:51:15;18.00;;;2.95;;
42200;SDS011;27869;51.442;7.540;2023-02-01T07:53:43;16.00;;;2.38;;
42200;SDS011;27869;51.442;7.540;2023-02-01T07:56:11;17.58;;;2.83;;
42200;SDS011;27869;51.442;7.540;2023-02-01T07:58:39;13.40;;;2.30;;
42200;SDS011;27869;51.442;7.540;2023-02-01T08:01:10;21.05;;;3.15;;
42200;SDS011;27869;51.442;7.540;2023-02-01T08:03:45;22.90;;;2.97;;
42200;SDS011;27869;51.442;7.540;2023-02-01T08:06:14;14.98;;;2.65;;
42200;SDS011;27869;51.442;7.540;2023-02-01T08:08:41;23.10;;;3.03;;
42200;SDS011;27869;51.442;7.540;2023-02-01T08:11:10;24.13;;;3.78;;
42200;SDS011;27869;51.442;7.540;2023-02-01T08:13:37;22.88;;;3.05;;
42200;SDS011;27869;51.442;7.540;2023-02-01T08:16:04;18.92;;;2.70;;
42200;SDS011;27869;51.442;7.540;2023-02-01T08:18:33;17.38;;;2.15;;
42200;SDS011;27869;51.442;7.540;2023-02-01T08:21:04;16.15;;;2.58;;
42200;SDS011;27869;51.442;7.540;2023-02-01T08:23:32;23.83;;;3.17;;
42200;SDS011;27869;51.442;7.540;2023-02-01T08:26:08;19.95;;;2.80;;
42200;SDS011;27869;51.442;7.540;2023-02-01T08:28:37;18.05;;;2.60;;
42200;SDS011;27869;51.442;7.540;2023-02-01T08:31:06;16.88;;;2.95;;
42200;SDS011;27869;51.442;7.540;2023-02-01T08:33:34;15.05;;;2.78;;
42200;SDS011;27869;51.442;7.540;2023-02-01T08:36:03;15.63;;;2.88;;
42200;SDS011;27869;51.442;7.540;2023-02-01T08:38:31;24.13;;;3.33;;
42200;SDS011;27869;51.442;7.540;2023-02-01T08:41:03;16.50;;;3.10;;
42200;SDS011;27869;51.442;7.540;2023-02-01T08:43:30;14.57;;;2.45;;
42200;SDS011;27869;51.442;7.540;2023-02-01T08:45:57;16.48;;;2.90;;
42200;SDS011;27869;51.442;7.540;2023-02-01T08:48:24;15.10;;;2.67;;
42200;SDS011;27869;51.442;7.540;2023-02-01T08:50:51;20.08;;;3.15;;
42200;SDS011;27869;51.442;7.540;2023-02-01T08:53:19;16.70;;;2.80;;
42200;SDS011;27869;51.442;7.540;2023-02-01T08:55:46;16.27;;;3.35;;
42200;SDS011;27869;51.442;7.540;2023-02-01T08:58:14;23.70;;;3.25;;
42200;SDS011;27869;51.442;7.540;2023-02-01T09:00:42;17.52;;;3.47;;
42200;SDS011;27869;51.442;7.540;2023-02-01T09:03:10;14.35;;;2.70;;
42200;SDS011;27869;51.442;7.540;2023-02-01T09:05:37;16.45;;;3.10;;
42200;SDS011;27869;51.442;7.540;2023-02-01T09:08:04;17.40;;;2.95;;
42200;SDS011;27869;51.442;7.540;2023-02-01T09:10:33;18.60;;;2.97;;
42200;SDS011;27869;51.442;7.540;2023-02-01T09:13:00;16.52;;;3.03;;
42200;SDS011;27869;51.442;7.540;2023-02-01T09:15:28;17.95;;;3.47;;
42200;SDS011;27869;51.442;7.540;2023-02-01T09:17:54;24.38;;;3.42;;
42200;SDS011;27869;51.442;7.540;2023-02-01T09:20:21;14.25;;;3.03;;
42200;SDS011;27869;51.442;7.540;2023-02-01T09:22:49;18.02;;;3.03;;
42200;SDS011;27869;51.442;7.540;2023-02-01T09:25:16;18.17;;;3.88;;
42200;SDS011;27869;51.442;7.540;2023-02-01T09:27:45;24.42;;;3.33;;
42200;SDS011;27869;51.442;7.540;2023-02-01T09:30:12;15.57;;;3.38;;
42200;SDS011;27869;51.442;7.540;2023-02-01T09:32:39;24.30;;;3.80;;
42200;SDS011;27869;51.442;7.540;2023-02-01T09:35:06;12.52;;;2.70;;
42200;SDS011;27869;51.442;7.540;2023-02-01T09:37:33;18.52;;;3.33;;
42200;SDS011;27869;51.442;7.540;2023-02-01T09:40:01;12.38;;;2.53;;
42200;SDS011;27869;51.442;7.540;2023-02-01T09:45:27;19.33;;;3.38;;
42200;SDS011;27869;51.442;7.540;2023-02-01T09:48:02;20.67;;;3.38;;
42200;SDS011;27869;51.442;7.540;2023-02-01T09:50:36;19.85;;;2.63;;
42200;SDS011;27869;51.442;7.540;2023-02-01T09:53:06;22.45;;;3.88;;
42200;SDS011;27869;51.442;7.540;2023-02-01T09:55:39;22.00;;;3.65;;
42200;SDS011;27869;51.442;7.540;2023-02-01T09:58:11;16.25;;;3.38;;
42200;SDS011;27869;51.442;7.540;2023-02-01T10:00:44;19.63;;;3.17;;
42200;SDS011;27869;51.442;7.540;2023-02-01T10:03:17;16.02;;;3.78;;
42200;SDS011;27869;51.442;7.540;2023-02-01T10:05:50;19.20;;;3.40;;
42200;SDS011;27869;51.442;7.540;2023-02-01T10:08:25;18.95;;;3.30;;
42200;SDS011;27869;51.442;7.540;2023-02-01T10:11:07;18.52;;;3.45;;
42200;SDS011;27869;51.442;7.540;2023-02-01T10:13:48;17.17;;;3.08;;
42200;SDS011;27869;51.442;7.540;2023-02-01T10:16:23;20.27;;;3.50;;
42200;SDS011;27869;51.442;7.540;2023-02-01T10:19:04;19.63;;;3.80;;
42200;SDS011;27869;51.442;7.540;2023-02-01T10:21:57;18.88;;;3.55;;
42200;SDS011;27869;51.442;7.540;2023-02-01T10:24:37;24.90;;;3.60;;
42200;SDS011;27869;51.442;7.540;2023-02-01T10:27:11;17.67;;;3.42;;
42200;SDS011;27869;51.442;7.540;2023-02-01T10:29:43;20.42;;;3.72;;
42200;SDS011;27869;51.442;7.540;2023-02-01T10:32:14;15.45;;;3.03;;
42200;SDS011;27869;51.442;7.540;2023-02-01T10:34:43;21.27;;;3.70;;
42200;SDS011;27869;51.442;7.540;2023-02-01T10:37:17;19.52;;;3.53;;
42200;SDS011;27869;51.442;7.540;2023-02-01T10:39:49;18.40;;;3.45;;
42200;SDS011;27869;51.442;7.540;2023-02-01T10:42:20;17.45;;;3.13;;
42200;SDS011;27869;51.442;7.540;2023-02-01T10:44:51;15.82;;;3.67;;
42200;SDS011;27869;51.442;7.540;2023-02-01T10:47:21;19.73;;;3.38;;
42200;SDS011;27869;51.442;7.540;2023-02-01T10:49:49;23.50;;;4.10;;
42200;SDS011;27869;51.442;7.540;2023-02-01T10:52:23;15.88;;;3.80;;
42200;SDS011;27869;51.442;7.540;2023-02-01T10:54:57;15.63;;;3.55;;
42200;SDS011;27869;51.442;7.540;2023-02-01T10:57:54;19.95;;;3.38;;
42200;SDS011;27869;51.442;7.540;2023-02-01T11:00:24;17.50;;;3.17;;
42200;SDS011;27869;51.442;7.540;2023-02-01T11:02:52;16.70;;;3.60;;
42200;SDS011;27869;51.442;7.540;2023-02-01T11:05:19;17.95;;;3.10;;
42200;SDS011;27869;51.442;7.540;2023-02-01T11:07:48;16.88;;;3.05;;
42200;SDS011;27869;51.442;7.540;2023-02-01T11:13:02;18.98;;;3.30;;
42200;SDS011;27869;51.442;7.540;2023-02-01T11:15:30;17.85;;;3.72;;
42200;SDS011;27869;51.442;7.540;2023-02-01T11:17:57;21.15;;;3.40;;
42200;SDS011;27869;51.442;7.540;2023-02-01T11:20:40;16.27;;;3.63;;
42200;SDS011;27869;51.442;7.540;2023-02-01T11:23:12;18.05;;;3.30;;
42200;SDS011;27869;51.442;7.540;2023-02-01T11:25:47;22.77;;;3.47;;
42200;SDS011;27869;51.442;7.540;2023-02-01T11:28:16;18.55;;;2.55;;
42200;SDS011;27869;51.442;7.540;2023-02-01T11:30:46;16.95;;;3.30;;
42200;SDS011;27869;51.442;7.540;2023-02-01T11:35:42;18.25;;;3.15;;
42200;SDS011;27869;51.442;7.540;2023-02-01T11:38:18;16.63;;;3.03;;
42200;SDS011;27869;51.442;7.540;2023-02-01T11:40:48;17.30;;;3.17;;
42200;SDS011;27869;51.442;7.540;2023-02-01T11:43:17;19.38;;;3.38;;
42200;SDS011;27869;51.442;7.540;2023-02-01T11:45:55;15.30;;;2.90;;
42200;SDS011;27869;51.442;7.540;2023-02-01T11:48:24;14.73;;;3.00;;
42200;SDS011;27869;51.442;7.540;2023-02-01T11:50:54;19.85;;;3.40;;
42200;SDS011;27869;51.442;7.540;2023-02-01T11:53:38;15.43;;;3.38;;
42200;SDS011;27869;51.442;7.540;2023-02-01T11:56:27;18.15;;;3.80;;
42200;SDS011;27869;51.442;7.540;2023-02-01T12:05:14;19.05;;;3.67;;
42200;SDS011;27869;51.442;7.540;2023-02-01T12:08:16;16.63;;;2.97;;
42200;SDS011;27869;51.442;7.540;2023-02-01T12:11:17;19.45;;;5.10;;
42200;SDS011;27869;51.442;7.540;2023-02-01T12:16:31;16.95;;;2.72;;
42200;SDS011;27869;51.442;7.540;2023-02-01T12:19:13;11.52;;;2.42;;
42200;SDS011;27869;51.442;7.540;2023-02-01T12:21:59;14.82;;;3.15;;
42200;SDS011;27869;51.442;7.540;2023-02-01T12:24:48;15.40;;;3.13;;
42200;SDS011;27869;51.442;7.540;2023-02-01T12:27:41;14.73;;;2.78;;
42200;SDS011;27869;51.442;7.540;2023-02-01T12:30:35;14.27;;;3.25;;
42200;SDS011;27869;51.442;7.540;2023-02-01T12:33:16;12.98;;;2.90;;
42200;SDS011;27869;51.442;7.540;2023-02-01T12:35:55;18.30;;;3.70;;
42200;SDS011;27869;51.442;7.540;2023-02-01T12:38:39;15.88;;;3.00;;
42200;SDS011;27869;51.442;7.540;2023-02-01T12:41:29;17.38;;;3.03;;
42200;SDS011;27869;51.442;7.540;2023-02-01T12:44:11;17.50;;;3.05;;
42200;SDS011;27869;51.442;7.540;2023-02-01T12:46:43;14.85;;;3.38;;
42200;SDS011;27869;51.442;7.540;2023-02-01T12:49:15;15.57;;;3.00;;
42200;SDS011;27869;51.442;7.540;2023-02-01T12:51:52;11.43;;;2.35;;
42200;SDS011;27869;51.442;7.540;2023-02-01T12:54:26;16.27;;;2.75;;
42200;SDS011;27869;51.442;7.540;2023-02-01T12:57:01;13.27;;;3.08;;
42200;SDS011;27869;51.442;7.540;2023-02-01T12:59:33;17.42;;;3.13;;
42200;SDS011;27869;51.442;7.540;2023-02-01T13:02:05;16.10;;;2.60;;
42200;SDS011;27869;51.442;7.540;2023-02-01T13:04:42;14.25;;;3.53;;
42200;SDS011;27869;51.442;7.540;2023-02-01T13:07:18;17.13;;;2.85;;
42200;SDS011;27869;51.442;7.540;2023-02-01T13:09:49;17.15;;;3.65;;
42200;SDS011;27869;51.442;7.540;2023-02-01T13:12:21;16.42;;;2.78;;
42200;SDS011;27869;51.442;7.540;2023-02-01T13:14:52;18.35;;;3.63;;
42200;SDS011;27869;51.442;7.540;2023-02-01T13:17:24;21.45;;;5.35;;
42200;SDS011;27869;51.442;7.540;2023-02-01T13:19:54;19.45;;;2.63;;
42200;SDS011;27869;51.442;7.540;2023-02-01T13:22:27;19.88;;;2.90;;
42200;SDS011;27869;51.442;7.540;2023-02-01T13:24:57;23.58;;;3.58;;
42200;SDS011;27869;51.442;7.540;2023-02-01T13:27:26;20.58;;;3.35;;
42200;SDS011;27869;51.442;7.540;2023-02-01T13:29:56;15.52;;;2.70;;
42200;SDS011;27869;51.442;7.540;2023-02-01T13:35:36;21.88;;;2.60;;
42200;SDS011;27869;51.442;7.540;2023-02-01T13:41:09;13.80;;;2.17;;
42200;SDS011;27869;51.442;7.540;2023-02-01T13:43:49;17.58;;;2.97;;
42200;SDS011;27869;51.442;7.540;2023-02-01T13:46:19;14.43;;;2.60;;
42200;SDS011;27869;51.442;7.540;2023-02-01T13:48:47;14.70;;;2.70;;
42200;SDS011;27869;51.442;7.540;2023-02-01T13:51:16;16.83;;;2.17;;
42200;SDS011;27869;51.442;7.540;2023-02-01T13:54:00;16.23;;;2.58;;
42200;SDS011;27869;51.442;7.540;2023-02-01T13:56:27;14.85;;;2.42;;
42200;SDS011;27869;51.442;7.540;2023-02-01T13:58:54;15.05;;;2.20;;
42200;SDS011;27869;51.442;7.540;2023-02-01T14:01:33;16.55;;;2.15;;
42200;SDS011;27869;51.442;7.540;2023-02-01T14:04:04;16.75;;;2.80;;
42200;SDS011;27869;51.442;7.540;2023-02-01T14:06:35;16.13;;;2.53;;
42200;SDS011;27869;51.442;7.540;2023-02-01T14:12:41;16.95;;;2.67;;
42200;SDS011;27869;51.442;7.540;2023-02-01T14:15:18;14.57;;;1.98;;
42200;SDS011;27869;51.442;7.540;2023-02-01T14:17:50;13.05;;;1.95;;
42200;SDS011;27869;51.442;7.540;2023-02-01T14:23:25;14.38;;;2.10;;
42200;SDS011;27869;51.442;7.540;2023-02-01T14:28:45;14.35;;;2.20;;
42200;SDS011;27869;51.442;7.540;2023-02-01T14:31:26;17.25;;;2.28;;
42200;SDS011;27869;51.442;7.540;2023-02-01T14:34:16;16.40;;;2.70;;
42200;SDS011;27869;51.442;7.540;2023-02-01T14:36:50;15.93;;;2.47;;
42200;SDS011;27869;51.442;7.540;2023-02-01T14:39:29;12.82;;;2.17;;
42200;SDS011;27869;51.442;7.540;2023-02-01T14:42:16;13.43;;;2.00;;
42200;SDS011;27869;51.442;7.540;2023-02-01T14:44:48;15.68;;;2.15;;
42200;SDS011;27869;51.442;7.540;2023-02-01T14:53:11;23.67;;;3.92;;
42200;SDS011;27869;51.442;7.540;2023-02-01T14:55:44;32.05;;;8.35;;
42200;SDS011;27869;51.442;7.540;2023-02-01T14:58:18;20.10;;;2.45;;
42200;SDS011;27869;51.442;7.540;2023-02-01T15:00:52;18.60;;;2.70;;
42200;SDS011;27869;51.442;7.540;2023-02-01T15:03:33;18.17;;;2.78;;
42200;SDS011;27869;51.442;7.540;2023-02-01T15:06:19;10.77;;;2.08;;
42200;SDS011;27869;51.442;7.540;2023-02-01T15:09:08;14.77;;;2.20;;
42200;SDS011;27869;51.442;7.540;2023-02-01T15:11:56;19.45;;;2.38;;
42200;SDS011;27869;51.442;7.540;2023-02-01T15:16:53;16.05;;;2.22;;
42200;SDS011;27869;51.442;7.540;2023-02-01T15:19:20;16.88;;;2.42;;
42200;SDS011;27869;51.442;7.540;2023-02-01T15:21:49;12.10;;;1.95;;
42200;SDS011;27869;51.442;7.540;2023-02-01T15:24:20;18.45;;;3.05;;
42200;SDS011;27869;51.442;7.540;2023-02-01T15:26:48;14.77;;;2.63;;
42200;SDS011;27869;51.442;7.540;2023-02-01T15:29:16;17.23;;;2.72;;
42200;SDS011;27869;51.442;7.540;2023-02-01T15:31:45;22.70;;;2.83;;
42200;SDS011;27869;51.442;7.540;2023-02-01T15:34:13;21.05;;;3.03;;
42200;SDS011;27869;51.442;7.540;2023-02-01T15:36:41;12.88;;;1.98;;
42200;SDS011;27869;51.442;7.540;2023-02-01T15:39:16;14.48;;;2.35;;
42200;SDS011;27869;51.442;7.540;2023-02-01T15:41:46;17.65;;;2.15;;
42200;SDS011;27869;51.442;7.540;2023-02-01T15:44:19;17.75;;;3.67;;
42200;SDS011;27869;51.442;7.540;2023-02-01T15:46:59;15.07;;;2.80;;
42200;SDS011;27869;51.442;7.540;2023-02-01T15:49:32;11.60;;;2.03;;
42200;SDS011;27869;51.442;7.540;2023-02-01T15:52:08;17.05;;;3.35;;